Time;durP1;ratioP1;P1;durP2;ratioP2;P2;SDS_P1;SDS_P2;PMS_P1;PMS_P2;Temp;Humidity;BMP_temperature;BMP_pressure;BME280_temperature;BME280_humidity;BME280_pressure;Samples;Min_cycle;Max_cycle;Signal;HPM_P1;HPM_P2
2021/03/19 00:00:52;;;;;;;4.60;4.15;;;;;;;21.54;44.13;100995.22;4969114;28;20532;-68
2021/03/19 00:03:17;;;;;;;4.55;4.15;;;;;;;21.53;44.05;100998.88;4967217;28;20027;-67
2021/03/19 00:05:43;;;;;;;4.07;3.78;;;;;;;21.53;44.16;100993.50;4969814;28;20488;-68
2021/03/19 00:08:08;;;;;;;4.40;4.00;;;;;;;21.54;44.19;100987.19;4967220;28;20038;-68
2021/03/19 00:10:33;;;;;;;4.28;3.88;;;;;;;21.57;44.14;100991.53;4968132;28;20030;-68
2021/03/19 00:13:01;;;;;;;4.75;4.35;;;;;;;21.57;44.08;100984.34;4969331;28;20030;-68
2021/03/19 00:15:27;;;;;;;5.00;4.60;;;;;;;21.57;44.10;100984.34;4966066;28;20069;-68
2021/03/19 00:17:53;;;;;;;6.80;3.83;;;;;;;21.57;44.06;100984.34;4968312;28;20117;-68
2021/03/19 00:20:19;;;;;;;4.30;3.90;;;;;;;21.58;44.10;100985.22;4966742;28;20106;-67
2021/03/19 00:22:45;;;;;;;4.43;4.03;;;;;;;21.59;44.02;100976.22;4966190;28;20027;-68
2021/03/19 00:25:11;;;;;;;4.43;4.03;;;;;;;21.60;44.12;100978.81;4968239;28;20524;-68
2021/03/19 00:27:37;;;;;;;4.13;3.80;;;;;;;21.61;43.97;100982.38;4965373;28;20031;-68
2021/03/19 00:30:05;;;;;;;5.07;4.53;;;;;;;21.60;44.09;100978.81;4969209;28;20508;-68
2021/03/19 00:32:30;;;;;;;5.00;4.60;;;;;;;21.61;43.97;100975.19;4966749;28;20035;-67
2021/03/19 00:34:56;;;;;;;4.20;3.80;;;;;;;21.62;43.98;100985.00;4966088;28;20057;-68
2021/03/19 00:37:21;;;;;;;3.97;3.67;;;;;;;21.64;43.98;100985.78;4967300;28;20038;-67
2021/03/19 00:39:46;;;;;;;4.50;3.90;;;;;;;21.64;43.84;100979.56;4968130;28;20473;-68
2021/03/19 00:42:12;;;;;;;4.57;4.18;;;;;;;21.63;44.03;100978.69;4984225;28;20043;-68
2021/03/19 00:44:37;;;;;;;3.88;3.58;;;;;;;21.64;43.97;100982.25;4965746;28;20062;-68
2021/03/19 00:47:03;;;;;;;4.00;3.50;;;;;;;21.65;43.97;100976.78;4967497;28;20034;-67
2021/03/19 00:49:29;;;;;;;4.70;4.30;;;;;;;21.67;44.03;100969.53;4967925;28;20026;-68
2021/03/19 00:51:54;;;;;;;4.97;4.47;;;;;;;21.69;43.93;100976.63;4965940;28;20035;-68
2021/03/19 00:54:20;;;;;;;3.95;3.65;;;;;;;21.69;43.87;100968.56;4965129;28;20027;-68
2021/03/19 00:56:45;;;;;;;4.38;4.03;;;;;;;21.67;44.03;100977.56;4967110;28;20034;-68
2021/03/19 00:59:10;;;;;;;4.15;3.85;;;;;;;21.70;43.96;100983.75;4967245;28;20031;-68
2021/03/19 01:01:36;;;;;;;4.03;3.72;;;;;;;21.67;43.89;100974.88;4966339;28;20027;-68
2021/03/19 01:04:02;;;;;;;4.68;4.28;;;;;;;21.70;44.14;100981.91;4968311;28;20034;-67
2021/03/19 01:06:28;;;;;;;4.57;4.20;;;;;;;21.71;44.00;100989.00;4964464;28;20026;-67
2021/03/19 01:08:53;;;;;;;4.85;4.40;;;;;;;21.72;43.85;100984.50;4966948;28;20057;-68
2021/03/19 01:11:18;;;;;;;4.70;4.22;;;;;;;21.72;44.05;100992.56;4965989;28;20065;-68
2021/03/19 01:13:44;;;;;;;4.78;4.38;;;;;;;21.73;43.91;100994.28;4968784;28;20042;-68
2021/03/19 01:16:09;;;;;;;5.00;4.60;;;;;;;21.73;43.77;100991.63;4967607;28;20432;-68
2021/03/19 01:18:34;;;;;;;4.50;4.10;;;;;;;21.73;43.95;100995.19;4966705;28;20361;-68
2021/03/19 01:21:00;;;;;;;5.18;4.68;;;;;;;21.73;43.90;100999.66;4971459;28;20427;-68
2021/03/19 01:23:25;;;;;;;4.28;3.92;;;;;;;21.75;43.93;100997.81;4970750;28;20022;-68
2021/03/19 01:25:51;;;;;;;4.85;4.45;;;;;;;21.76;43.90;100996.88;4971008;28;20400;-67
2021/03/19 01:28:16;;;;;;;4.95;4.45;;;;;;;21.74;43.92;100991.56;4972961;28;20053;-68
2021/03/19 01:30:43;;;;;;;4.97;4.57;;;;;;;21.75;43.96;100993.31;4973370;28;20487;-68
2021/03/19 01:33:08;;;;;;;4.85;4.45;;;;;;;21.76;43.85;100988.81;4971251;28;20031;-68
2021/03/19 01:35:36;;;;;;;4.60;4.20;;;;;;;21.75;43.85;100992.44;4972450;28;20034;-68
2021/03/19 01:38:02;;;;;;;5.28;4.78;;;;;;;21.77;43.97;100990.53;4972313;28;20074;-68
2021/03/19 01:40:42;;;;;;;4.30;3.90;;;;;;;21.76;43.87;100994.19;4971174;28;20035;-67
2021/03/19 01:43:53;;;;;;;5.30;4.65;;;;;;;21.77;43.95;100990.53;4973226;28;20543;-68
2021/03/19 01:46:56;;;;;;;5.53;4.60;;;;;;;21.76;43.87;100994.19;4931887;28;20053;-68
2021/03/19 01:49:59;;;;;;;4.75;4.28;;;;;;;21.75;43.92;100997.81;4972852;28;20023;-67
2021/03/19 01:53:04;;;;;;;4.88;4.47;;;;;;;21.77;43.99;101007.53;4972437;28;20554;-68
2021/03/19 01:56:07;;;;;;;4.13;3.83;;;;;;;21.77;43.85;101003.97;4971898;28;20054;-68
2021/03/19 01:59:09;;;;;;;4.85;4.25;;;;;;;21.76;43.84;101004.91;4971724;28;20424;-68
2021/03/19 02:02:12;;;;;;;5.20;4.80;;;;;;;21.76;43.92;100999.53;4972609;28;20027;-68
2021/03/19 02:05:15;;;;;;;4.80;4.40;;;;;;;21.75;43.94;101003.19;4973571;28;20497;-68
2021/03/19 02:08:18;;;;;;;5.07;4.57;;;;;;;21.75;43.90;100992.44;4969595;28;20031;-68
2021/03/19 02:11:20;;;;;;;4.65;4.25;;;;;;;21.73;43.86;101005.03;4970649;28;20042;-68
2021/03/19 02:14:23;;;;;;;4.32;3.92;;;;;;;21.74;43.98;101001.47;4968312;28;20062;-68
2021/03/19 02:17:26;;;;;;;4.55;4.15;;;;;;;21.75;43.94;101009.44;4968257;28;20485;-67
2021/03/19 02:20:28;;;;;;;4.28;3.97;;;;;;;21.76;43.90;101010.28;4969076;28;20077;-68
2021/03/19 02:23:31;;;;;;;4.43;4.03;;;;;;;21.74;43.85;101001.47;4971030;28;20093;-68
2021/03/19 02:26:34;;;;;;;5.00;4.60;;;;;;;21.74;43.84;100996.09;4971544;28;20113;-68
2021/03/19 02:29:36;;;;;;;5.30;4.80;;;;;;;21.76;43.90;101002.22;4971075;28;20034;-67
2021/03/19 02:32:21;;;;;;;4.25;3.95;;;;;;;21.75;43.92;100997.81;4969365;28;20124;-68
2021/03/19 02:34:52;;;;;;;4.78;4.38;;;;;;;21.75;43.82;100998.69;4968460;28;20126;-68
2021/03/19 02:37:20;;;;;;;4.78;4.38;;;;;;;21.76;43.80;101007.59;4968139;28;20030;-67
2021/03/19 02:39:46;;;;;;;5.03;4.63;;;;;;;21.75;43.93;101013.91;4970199;28;20054;-68
2021/03/19 02:42:13;;;;;;;5.13;4.72;;;;;;;21.76;43.72;101010.28;4968003;28;20056;-68
2021/03/19 02:44:38;;;;;;;4.95;4.50;;;;;;;21.76;43.85;101011.16;4971255;28;20519;-67
2021/03/19 02:47:04;;;;;;;4.72;4.30;;;;;;;21.78;43.83;101013.78;4969666;28;20113;-68
2021/03/19 02:49:30;;;;;;;4.75;4.30;;;;;;;21.77;43.85;101006.63;4970882;28;20034;-68
2021/03/19 02:51:55;;;;;;;5.47;4.97;;;;;;;21.77;43.95;101014.69;4968680;28;20396;-68
2021/03/19 02:54:21;;;;;;;5.10;4.65;;;;;;;21.77;43.78;101012.88;4969351;28;20369;-68
2021/03/19 02:56:47;;;;;;;5.20;4.80;;;;;;;21.79;43.83;101020.88;4968694;28;20026;-68
2021/03/19 02:59:12;;;;;;;4.43;3.95;;;;;;;21.80;43.78;101019.91;4971206;28;20061;-68
2021/03/19 03:01:37;;;;;;;5.55;5.05;;;;;;;21.81;43.81;101023.47;4968645;28;20025;-68
2021/03/19 03:04:03;;;;;;;5.32;4.82;;;;;;;21.79;43.80;101011.00;4969842;28;20563;-68
2021/03/19 03:06:43;;;;;;;4.85;4.45;;;;;;;21.81;43.84;101013.63;4968529;28;20034;-68
2021/03/19 03:09:15;;;;;;;5.32;4.93;;;;;;;21.82;43.81;101019.84;4973113;28;20149;-68
2021/03/19 03:11:41;;;;;;;5.10;4.70;;;;;;;21.81;43.77;101013.63;4970527;28;20042;-68
2021/03/19 03:14:09;;;;;;;5.05;4.55;;;;;;;21.82;43.83;101014.47;4969640;28;20039;-68
2021/03/19 03:16:35;;;;;;;5.18;4.75;;;;;;;21.83;43.83;101017.06;4969175;28;20034;-68
2021/03/19 03:19:01;;;;;;;4.93;4.50;;;;;;;21.83;43.81;101010.81;4969566;28;20023;-68
2021/03/19 03:21:26;;;;;;;5.03;4.63;;;;;;;21.81;43.83;101021.69;4971381;28;20023;-68
2021/03/19 03:23:51;;;;;;;4.85;4.45;;;;;;;21.84;43.83;101021.50;4972467;28;20127;-67
2021/03/19 03:26:17;;;;;;;5.28;4.78;;;;;;;21.86;43.72;101021.41;4970509;28;20456;-68
2021/03/19 03:28:42;;;;;;;5.05;4.55;;;;;;;21.84;43.82;101024.19;4966433;28;20073;-68
2021/03/19 03:31:08;;;;;;;5.75;5.25;;;;;;;21.85;43.87;101020.56;4970016;28;20034;-68
2021/03/19 03:33:33;;;;;;;4.85;4.32;;;;;;;21.85;43.72;101020.56;4967569;28;20027;-68
2021/03/19 03:35:59;;;;;;;5.10;4.70;;;;;;;21.85;43.79;101025.94;4968109;28;20559;-68
2021/03/19 03:38:27;;;;;;;6.38;5.72;;;;;;;21.85;43.83;101023.25;4971378;28;20084;-68
2021/03/19 03:41:08;;;;;;;4.55;4.15;;;;;;;21.86;43.74;101024.97;4968915;28;20037;-68
2021/03/19 03:43:34;;;;;;;5.50;5.00;;;;;;;21.86;43.81;101024.97;4965584;28;20035;-68
2021/03/19 03:46:00;;;;;;;4.78;4.38;;;;;;;21.87;43.85;101024.03;4967734;28;20045;-68
2021/03/19 03:48:28;;;;;;;4.90;4.50;;;;;;;21.87;43.74;101026.72;4983057;28;20034;-68
2021/03/19 03:50:53;;;;;;;5.10;4.70;;;;;;;21.88;43.81;101019.53;4969969;28;20102;-68
2021/03/19 03:53:19;;;;;;;4.82;4.43;;;;;;;21.88;43.74;101019.53;4969441;28;20559;-68
2021/03/19 03:55:44;;;;;;;5.22;4.82;;;;;;;21.88;43.74;101028.44;4968494;28;20041;-68
2021/03/19 03:58:11;;;;;;;5.15;4.65;;;;;;;21.89;43.71;101032.00;4980626;28;20042;-68
2021/03/19 04:00:37;;;;;;;5.57;5.07;;;;;;;21.89;43.66;101032.00;4968973;28;20030;-68
2021/03/19 04:03:04;;;;;;;5.10;4.70;;;;;;;21.90;43.66;101034.63;4968390;28;20045;-68
2021/03/19 04:05:36;;;;;;;4.57;4.15;;;;;;;21.89;43.67;101035.56;4970354;28;20588;-68
2021/03/19 04:08:01;;;;;;;5.05;4.63;;;;;;;21.90;43.71;101044.47;4968941;28;20085;-68
2021/03/19 04:10:27;;;;;;;5.13;4.32;;;;;;;21.89;43.64;101038.25;4952129;28;20078;-68
2021/03/19 04:12:53;;;;;;;4.85;4.45;;;;;;;21.89;43.75;101038.25;4972926;28;20027;-68
2021/03/19 04:15:19;;;;;;;4.90;4.40;;;;;;;21.88;43.79;101036.50;4967699;28;20046;-68
2021/03/19 04:17:46;;;;;;;5.22;4.72;;;;;;;21.91;43.62;101041.72;4966826;28;20038;-68
2021/03/19 04:20:13;;;;;;;5.03;4.53;;;;;;;21.90;43.70;101034.63;4968707;28;20027;-68
2021/03/19 04:22:39;;;;;;;4.93;4.53;;;;;;;21.89;43.63;101040.94;4966504;28;20469;-68
2021/03/19 04:25:05;;;;;;;5.00;4.60;;;;;;;21.89;43.75;101048.09;4970467;28;20053;-68
2021/03/19 04:27:33;;;;;;;4.88;4.47;;;;;;;21.89;43.70;101042.75;4967517;28;20105;-68
2021/03/19 04:29:58;;;;;;;5.28;4.88;;;;;;;21.88;43.65;101036.50;4965486;28;20054;-68
2021/03/19 04:32:24;;;;;;;5.47;4.97;;;;;;;21.90;43.66;101037.28;4967553;28;20055;-68
2021/03/19 04:34:49;;;;;;;5.22;4.72;;;;;;;21.89;43.67;101043.63;4968289;28;20092;-68
2021/03/19 04:37:15;;;;;;;4.70;4.30;;;;;;;21.88;43.65;101047.22;4968136;28;20054;-68
2021/03/19 04:39:43;;;;;;;4.70;4.30;;;;;;;21.89;43.69;101054.38;4963740;28;20420;-68
2021/03/19 04:42:09;;;;;;;4.82;4.43;;;;;;;21.88;43.81;101063.34;4967474;28;20027;-69
2021/03/19 04:44:38;;;;;;;4.82;4.43;;;;;;;21.88;43.66;101066.03;4968812;28;20072;-68
2021/03/19 04:47:05;;;;;;;5.03;4.60;;;;;;;21.89;43.63;101066.91;4966991;28;20061;-68
2021/03/19 04:49:31;;;;;;;6.10;5.50;;;;;;;21.89;43.62;101070.47;4966037;28;20026;-68
2021/03/19 04:51:56;;;;;;;4.40;4.00;;;;;;;21.88;43.66;101079.44;4967295;28;20070;-68
2021/03/19 04:54:21;;;;;;;5.55;5.05;;;;;;;21.86;43.85;101070.63;4969549;28;20034;-68
2021/03/19 04:56:47;;;;;;;5.15;4.72;;;;;;;21.88;43.62;101084.81;4965325;28;20152;-68
2021/03/19 04:59:12;;;;;;;5.72;4.88;;;;;;;21.87;43.67;101092.97;4968122;28;20065;-67
2021/03/19 05:01:58;;;;;;;5.13;4.63;;;;;;;21.86;43.65;101091.22;4965526;28;20026;-68
2021/03/19 05:04:24;;;;;;;5.40;5.00;;;;;;;21.87;43.69;101088.47;4965175;28;20061;-68
2021/03/19 05:06:51;;;;;;;5.38;4.90;;;;;;;21.88;43.73;101090.19;4967013;28;20031;-68
2021/03/19 05:09:19;;;;;;;4.80;4.38;;;;;;;21.87;43.74;101085.78;4966688;28;20022;-68
2021/03/19 05:11:44;;;;;;;4.53;4.13;;;;;;;21.84;43.60;101093.97;4961971;28;20107;-67
2021/03/19 05:14:09;;;;;;;5.28;4.80;;;;;;;21.85;43.72;101103.78;4969313;28;20035;-68
2021/03/19 05:16:35;;;;;;;5.00;4.53;;;;;;;21.84;43.82;101099.34;4966959;28;20069;-68
2021/03/19 05:19:00;;;;;;;5.35;4.85;;;;;;;21.83;43.69;101104.78;4969088;28;20080;-68
2021/03/19 05:21:25;;;;;;;4.55;4.15;;;;;;;21.86;43.67;101107.31;4968756;28;21122;-68
2021/03/19 05:23:51;;;;;;;5.25;4.75;;;;;;;21.83;43.61;101107.47;4968935;28;20007;-69
2021/03/19 05:26:16;;;;;;;5.18;4.68;;;;;;;21.84;43.87;101110.09;4969106;28;20030;-68
2021/03/19 05:28:41;;;;;;;4.53;4.13;;;;;;;21.83;43.74;101119.09;4966098;28;20035;-69
2021/03/19 05:31:07;;;;;;;4.88;4.30;;;;;;;21.84;43.67;101123.50;4968524;28;20046;-69
2021/03/19 05:33:43;;;;;;;5.45;4.95;;;;;;;21.84;43.69;101128.03;4964849;28;20059;-69
2021/03/19 05:36:09;;;;;;;4.75;4.35;;;;;;;21.85;43.77;101127.94;4968791;28;20034;-70
2021/03/19 05:38:34;;;;;;;4.70;4.30;;;;;;;21.85;43.92;101133.31;4966785;28;20432;-69
2021/03/19 05:41:00;;;;;;;5.20;4.32;;;;;;;21.84;43.91;101142.31;4967694;28;20031;-70
2021/03/19 05:43:28;;;;;;;4.90;4.40;;;;;;;21.84;43.79;101136.94;4966884;28;20034;-70
2021/03/19 05:45:57;;;;;;;4.55;4.15;;;;;;;21.86;43.81;101156.53;4967666;28;20515;-70
2021/03/19 05:48:25;;;;;;;5.03;4.60;;;;;;;21.84;43.82;101147.66;4969580;28;20077;-70
2021/03/19 05:50:51;;;;;;;5.65;5.15;;;;;;;21.83;43.87;101154.00;4967352;28;20054;-70
2021/03/19 05:53:19;;;;;;;5.45;4.95;;;;;;;21.85;43.73;101154.81;4966215;28;20031;-70
2021/03/19 05:55:44;;;;;;;5.30;4.80;;;;;;;21.84;43.73;101158.41;4968653;28;20026;-70
2021/03/19 05:58:24;;;;;;;4.65;4.25;;;;;;;21.84;43.82;101179.88;4969066;28;20038;-69
2021/03/19 06:00:54;;;;;;;4.80;4.40;;;;;;;21.86;43.89;101169.97;4968813;28;20035;-69
2021/03/19 06:03:20;;;;;;;5.07;4.57;;;;;;;21.86;43.76;101172.66;4967980;28;20041;-70
2021/03/19 06:06:08;;;;;;;5.05;4.38;;;;;;;21.87;43.77;101174.38;4969660;28;20663;-69
2021/03/19 06:08:40;;;;;;;5.68;5.07;;;;;;;21.86;43.67;101178.00;4970900;28;20054;-69
2021/03/19 06:11:10;;;;;;;4.70;4.30;;;;;;;21.86;43.84;101180.69;4966494;28;20069;-69
2021/03/19 06:13:45;;;;;;;4.63;4.22;;;;;;;21.88;43.80;101194.91;4968142;28;20552;-69
2021/03/19 06:16:42;;;;;;;4.88;4.47;;;;;;;21.88;43.81;101189.53;4983542;28;20053;-69
2021/03/19 06:19:26;;;;;;;4.93;4.53;;;;;;;21.90;43.69;101190.34;4954716;28;20138;-69
2021/03/19 06:22:20;;;;;;;4.47;4.13;;;;;;;21.90;43.77;101184.97;4972711;28;20057;-69
2021/03/19 06:24:53;;;;;;;4.60;4.20;;;;;;;21.89;43.67;101188.59;4971778;28;20465;-69
2021/03/19 06:27:23;;;;;;;5.70;5.10;;;;;;;21.90;43.71;101190.34;4968293;28;20019;-69
2021/03/19 06:29:51;;;;;;;4.80;4.40;;;;;;;21.92;43.70;101180.41;4972069;28;20030;-68
2021/03/19 06:32:20;;;;;;;5.70;5.20;;;;;;;21.94;43.76;101179.44;4969795;28;20026;-69
2021/03/19 06:35:09;;;;;;;5.13;4.70;;;;;;;21.95;43.49;101186.56;4987329;28;20076;-69
2021/03/19 06:37:48;;;;;;;4.60;4.20;;;;;;;21.97;43.58;101195.41;4971867;28;20034;-69
2021/03/19 06:40:16;;;;;;;4.45;4.05;;;;;;;21.96;43.56;101188.28;4971121;28;20031;-69
2021/03/19 06:42:41;;;;;;;4.45;4.13;;;;;;;21.97;43.65;101190.03;4972117;28;20029;-69
2021/03/19 06:45:17;;;;;;;4.47;4.07;;;;;;;21.96;43.57;101194.53;4971688;28;20034;-69
2021/03/19 06:47:52;;;;;;;4.35;3.97;;;;;;;21.97;43.68;101195.41;4971450;28;20023;-69
2021/03/19 06:50:24;;;;;;;4.70;4.30;;;;;;;21.99;43.49;101198.88;4972229;28;20620;-69
2021/03/19 06:52:50;;;;;;;5.50;5.00;;;;;;;21.97;43.58;101208.84;4972137;28;20061;-69
2021/03/19 06:55:34;;;;;;;4.68;4.25;;;;;;;21.99;43.57;101209.63;4968231;28;20027;-69
2021/03/19 06:57:59;;;;;;;4.30;3.90;;;;;;;21.98;43.62;101219.50;4973425;28;20591;-69
2021/03/19 07:00:39;;;;;;;5.05;4.65;;;;;;;21.97;43.58;101211.53;4969675;28;20034;-69
2021/03/19 07:03:44;;;;;;;5.45;4.82;;;;;;;21.99;43.57;101220.38;4967581;28;20544;-69
2021/03/19 07:06:45;;;;;;;5.00;4.60;;;;;;;21.99;43.47;101217.69;4961799;28;20055;-69
2021/03/19 07:09:37;;;;;;;5.22;4.80;;;;;;;21.99;43.60;101221.25;4969699;28;20088;-69
2021/03/19 07:12:27;;;;;;;6.07;5.53;;;;;;;22.00;43.61;101231.03;4968232;28;20110;-69
2021/03/19 07:15:10;;;;;;;5.57;4.93;;;;;;;22.00;43.53;101228.34;4968142;28;20508;-69
2021/03/19 07:18:17;;;;;;;5.22;4.70;;;;;;;22.03;43.58;101232.69;4967172;28;20035;-69
2021/03/19 07:21:28;;;;;;;4.30;3.97;;;;;;;22.07;43.44;101239.66;4889354;29;20043;-69
2021/03/19 07:24:19;;;;;;;4.88;4.47;;;;;;;22.09;43.31;101232.41;4892855;29;20150;-69
2021/03/19 07:26:46;;;;;;;;;;;;;;;22.14;43.34;101241.09;4957805;28;20042;-69
2021/03/19 07:29:48;;;;;;;4.60;4.20;;;;;;;22.18;43.31;101253.44;4970199;28;19972;-69
2021/03/19 07:32:35;;;;;;;5.20;4.70;;;;;;;22.16;43.32;101241.91;4968049;28;20131;-69
2021/03/19 07:35:17;;;;;;;4.88;4.38;;;;;;;22.18;43.15;101249.88;4964375;28;20533;-69
2021/03/19 07:38:24;;;;;;;5.82;5.30;;;;;;;22.17;43.27;101248.13;4983682;28;20031;-69
2021/03/19 07:40:55;;;;;;;5.20;4.70;;;;;;;22.17;43.31;101251.69;4975867;28;20037;-69
2021/03/19 07:43:30;;;;;;;4.25;3.95;;;;;;;22.21;43.26;101247.03;4967852;28;20468;-69
2021/03/19 07:46:23;;;;;;;5.07;4.63;;;;;;;22.26;43.32;101246.81;4961371;28;20023;-69
2021/03/19 07:49:14;;;;;;;5.45;4.95;;;;;;;22.27;43.11;101243.16;4972827;28;20031;-69
2021/03/19 07:52:08;;;;;;;5.13;4.72;;;;;;;22.24;43.29;101248.72;4967438;28;20074;-69
2021/03/19 07:54:49;;;;;;;4.93;4.53;;;;;;;22.25;43.20;101245.97;4969368;28;20038;-69
2021/03/19 07:57:50;;;;;;;4.82;4.43;;;;;;;22.31;43.23;101255.53;4966956;28;20033;-71
2021/03/19 08:00:23;;;;;;;4.57;4.18;;;;;;;22.36;43.09;101245.41;4945237;28;20110;-71
2021/03/19 08:02:59;;;;;;;4.93;4.53;;;;;;;22.38;43.14;101239.97;4962761;28;20042;-71
2021/03/19 08:05:40;;;;;;;5.10;4.70;;;;;;;22.42;42.89;101250.50;4964783;28;20038;-69
2021/03/19 08:08:19;;;;;;;4.80;4.40;;;;;;;22.46;43.02;101244.94;4968900;28;20045;-69
2021/03/19 08:11:05;;;;;;;5.10;4.65;;;;;;;22.47;42.98;101242.19;4982066;28;20026;-68
2021/03/19 08:14:16;;;;;;;5.55;5.05;;;;;;;22.50;42.97;101255.47;4965114;28;20035;-67
2021/03/19 08:17:20;;;;;;;4.68;4.28;;;;;;;22.45;43.07;101259.31;4952787;28;20085;-70
2021/03/19 08:19:53;;;;;;;4.45;4.15;;;;;;;22.47;42.99;101258.31;4973353;28;20555;-72
2021/03/19 08:22:36;;;;;;;5.90;4.00;;;;;;;22.54;42.80;101261.56;4965716;28;20027;-68
2021/03/19 08:25:06;;;;;;;4.88;4.38;;;;;;;22.51;42.83;101261.72;4962761;28;20031;-68
2021/03/19 08:27:57;;;;;;;4.72;4.22;;;;;;;22.51;42.75;101273.31;4968238;28;20058;-68
2021/03/19 08:30:43;;;;;;;3.97;3.65;;;;;;;22.54;42.65;101275.00;4966211;28;20077;-68
2021/03/19 08:33:30;;;;;;;4.88;4.47;;;;;;;22.53;42.67;101282.19;4968103;28;20094;-68
2021/03/19 08:36:04;;;;;;;5.35;4.65;;;;;;;22.49;42.86;101283.28;4969991;28;20069;-68
2021/03/19 08:38:39;;;;;;;4.97;4.55;;;;;;;22.48;42.72;101295.00;4964184;28;20046;-68
2021/03/19 08:41:13;;;;;;;5.20;4.50;;;;;;;22.47;42.96;101295.06;4970654;28;20026;-68
2021/03/19 08:43:49;;;;;;;4.80;4.40;;;;;;;22.44;42.91;101298.75;4969429;28;20027;-68
2021/03/19 08:46:23;;;;;;;4.63;4.22;;;;;;;22.46;42.78;101304.06;4971446;28;20113;-68
2021/03/19 08:48:51;;;;;;;5.00;4.43;;;;;;;22.48;42.85;101299.50;4973659;28;20028;-68
2021/03/19 08:51:32;;;;;;;5.30;4.80;;;;;;;22.52;42.90;101306.44;4970377;28;20026;-67
2021/03/19 08:54:12;;;;;;;5.13;4.63;;;;;;;22.53;42.82;101311.75;4972817;28;20410;-68
2021/03/19 08:56:40;;;;;;;5.10;4.70;;;;;;;22.52;42.84;101309.16;4971213;28;20113;-68
2021/03/19 08:59:06;;;;;;;7.82;5.05;;;;;;;22.51;42.88;101310.09;4967348;28;20040;-68
2021/03/19 09:01:55;;;;;;;5.65;4.78;;;;;;;22.53;42.64;101306.38;4981389;28;20031;-68
2021/03/19 09:04:51;;;;;;;5.18;4.60;;;;;;;22.57;42.71;101317.88;4970336;28;20058;-68
2021/03/19 09:07:22;;;;;;;4.75;4.32;;;;;;;22.61;42.79;101315.91;4969198;28;20019;-68
2021/03/19 09:09:48;;;;;;;5.10;4.68;;;;;;;22.63;42.63;101328.31;4974388;28;20022;-69
2021/03/19 09:12:17;;;;;;;5.10;4.50;;;;;;;22.63;42.60;101336.38;4971475;28;20062;-68
2021/03/19 09:14:48;;;;;;;4.82;4.43;;;;;;;22.61;42.52;101335.59;4972924;28;20061;-68
2021/03/19 09:17:42;;;;;;;4.55;4.18;;;;;;;22.63;42.61;101344.44;4969707;28;20147;-68
2021/03/19 09:20:13;;;;;;;5.32;4.82;;;;;;;22.64;42.44;101340.81;4977514;28;20054;-68
2021/03/19 09:22:40;;;;;;;5.47;5.00;;;;;;;22.61;42.66;101340.97;4987610;28;20026;-68
2021/03/19 09:25:09;;;;;;;4.95;4.55;;;;;;;22.65;42.60;101342.56;4972053;28;20028;-68
2021/03/19 09:27:36;;;;;;;5.53;5.03;;;;;;;22.68;42.37;101347.78;4973199;28;20575;-68
2021/03/19 09:30:14;;;;;;;5.60;5.10;;;;;;;22.71;42.27;101352.16;4970428;28;20129;-68
2021/03/19 09:32:45;;;;;;;5.65;5.15;;;;;;;22.74;42.32;101359.19;4972145;28;20495;-69
2021/03/19 09:35:34;;;;;;;4.60;4.20;;;;;;;22.76;42.20;101354.59;4981926;28;20027;-68
2021/03/19 09:38:00;;;;;;;4.53;4.13;;;;;;;22.77;42.17;101351.81;4970885;28;20026;-68
2021/03/19 09:40:44;;;;;;;4.65;4.25;;;;;;;22.72;42.39;101358.38;4968796;28;20027;-68
2021/03/19 09:43:31;;;;;;;5.50;5.03;;;;;;;22.74;42.17;101353.81;4973021;28;20023;-69
2021/03/19 09:46:24;;;;;;;4.82;4.43;;;;;;;22.77;42.33;101359.03;4974006;28;20476;-69
2021/03/19 09:48:56;;;;;;;5.05;4.65;;;;;;;22.75;42.32;101355.53;4974445;28;20481;-69
2021/03/19 09:51:34;;;;;;;5.70;5.20;;;;;;;22.76;42.68;101354.59;4971329;28;20030;-68
2021/03/19 09:54:16;;;;;;;4.18;3.80;;;;;;;22.73;42.21;101361.00;4973733;28;20034;-68
2021/03/19 09:56:41;;;;;;;5.30;4.90;;;;;;;22.68;42.46;101352.31;4970883;28;20030;-68
2021/03/19 09:59:08;;;;;;;6.35;5.25;;;;;;;22.67;42.39;101356.78;4973513;28;20037;-68
2021/03/19 10:01:43;;;;;;;5.28;4.78;;;;;;;22.68;42.51;101360.38;4975366;28;20130;-68
2021/03/19 10:04:12;;;;;;;5.75;5.20;;;;;;;22.64;42.48;101351.56;4971638;28;20029;-69
2021/03/19 10:06:45;;;;;;;5.35;4.82;;;;;;;22.64;42.73;101358.78;4977244;28;20026;-68
2021/03/19 10:09:12;;;;;;;5.50;5.00;;;;;;;22.64;42.59;101367.69;4970538;28;20385;-69
2021/03/19 10:11:53;;;;;;;5.68;5.18;;;;;;;22.62;42.45;101358.84;4975723;28;20102;-68
2021/03/19 10:14:31;;;;;;;5.18;4.68;;;;;;;22.60;42.54;101366.09;4974833;28;20050;-68
2021/03/19 10:17:10;;;;;;;4.78;4.38;;;;;;;22.62;42.61;101372.28;4990933;28;20022;-69
2021/03/19 10:19:37;;;;;;;4.75;4.32;;;;;;;22.59;42.72;101367.06;4972179;28;20038;-68
2021/03/19 10:22:05;;;;;;;4.95;4.53;;;;;;;22.59;42.71;101369.75;4974902;28;20015;-68
2021/03/19 10:24:31;;;;;;;5.50;4.95;;;;;;;22.58;42.62;101369.81;4971792;28;20705;-70
2021/03/19 10:27:02;;;;;;;4.85;4.45;;;;;;;22.55;42.62;101365.44;4974541;28;20030;-68
2021/03/19 10:29:33;;;;;;;4.60;4.30;;;;;;;22.58;42.75;101372.50;4973012;28;20488;-69
2021/03/19 10:32:01;;;;;;;5.07;4.57;;;;;;;22.55;42.68;101373.50;4973676;28;20034;-68
2021/03/19 10:35:05;;;;;;;4.75;4.35;;;;;;;22.56;42.57;101369.91;4972278;28;20030;-68
2021/03/19 10:37:38;;;;;;;5.07;4.68;;;;;;;22.56;42.79;101367.19;4968224;28;20585;-69
2021/03/19 10:40:16;;;;;;;4.90;4.50;;;;;;;22.54;42.71;101371.78;4972327;28;20473;-68
2021/03/19 10:42:46;;;;;;;4.50;4.10;;;;;;;22.55;42.80;101373.50;4974434;28;20030;-68
2021/03/19 10:45:33;;;;;;;5.07;4.68;;;;;;;22.55;42.65;101390.47;4988613;28;20050;-69
2021/03/19 10:48:17;;;;;;;5.20;4.70;;;;;;;22.53;42.88;101380.75;4969100;28;20038;-68
2021/03/19 10:51:01;;;;;;;5.65;5.15;;;;;;;22.52;42.83;101379.03;4984021;28;20041;-68
2021/03/19 10:53:52;;;;;;;5.72;5.22;;;;;;;22.53;42.68;101384.31;4966699;28;20227;-69
2021/03/19 10:56:18;;;;;;;5.53;5.07;;;;;;;22.53;42.73;101375.38;4969854;28;20397;-68
2021/03/19 10:58:47;;;;;;;5.20;4.75;;;;;;;22.53;42.66;101386.13;4973282;28;20030;-68
2021/03/19 11:01:28;;;;;;;5.07;4.53;;;;;;;22.52;42.63;101384.41;4970465;28;20374;-69
2021/03/19 11:03:54;;;;;;;5.30;4.80;;;;;;;22.51;42.85;101388.88;4971368;28;20465;-68
2021/03/19 11:06:45;;;;;;;5.60;5.05;;;;;;;22.52;42.84;101384.41;4972464;28;20053;-68
2021/03/19 11:09:15;;;;;;;4.82;4.43;;;;;;;22.48;42.80;101394.44;4965560;28;20038;-68
2021/03/19 11:11:43;;;;;;;4.87;4.47;;;;;;;22.47;42.71;101394.50;4968307;28;20038;-68
2021/03/19 11:14:11;;;;;;;6.07;5.57;;;;;;;22.47;42.83;101397.19;4973327;28;20037;-68
2021/03/19 11:16:45;;;;;;;5.15;4.75;;;;;;;22.46;42.69;101393.63;4962533;28;20030;-68
2021/03/19 11:19:17;;;;;;;4.85;4.45;;;;;;;22.45;42.83;101393.69;4973635;28;20171;-69
2021/03/19 11:21:45;;;;;;;5.32;4.82;;;;;;;22.44;42.90;101395.50;4974595;28;20527;-68
2021/03/19 11:24:28;;;;;;;5.40;4.90;;;;;;;22.47;42.98;101389.13;4981779;23;20089;-68
2021/03/19 11:26:57;;;;;;;4.85;4.03;;;;;;;22.43;42.84;101391.97;4982002;28;20025;-68
2021/03/19 11:29:32;;;;;;;5.68;5.18;;;;;;;22.44;42.87;101392.81;4990021;28;20022;-68
2021/03/19 11:32:13;;;;;;;4.75;4.35;;;;;;;22.43;42.64;101386.59;4987720;28;20029;-68
2021/03/19 11:34:45;;;;;;;5.22;4.82;;;;;;;22.43;42.76;101391.97;4986407;28;20040;-68
2021/03/19 11:37:29;;;;;;;5.35;4.82;;;;;;;22.42;42.84;101390.22;5003372;28;20026;-68
2021/03/19 11:39:57;;;;;;;5.10;4.63;;;;;;;22.42;42.80;101386.66;4990599;28;20041;-68
2021/03/19 11:42:24;;;;;;;5.35;4.85;;;;;;;22.43;42.76;101386.59;4987251;28;20033;-68
2021/03/19 11:44:54;;;;;;;5.90;5.38;;;;;;;22.40;42.88;101383.16;4985876;28;20045;-68
2021/03/19 11:47:24;;;;;;;5.35;4.85;;;;;;;22.40;42.77;101391.22;4962972;28;20411;-68
2021/03/19 11:49:52;;;;;;;5.10;4.70;;;;;;;22.39;42.83;101379.63;5007113;28;20422;-69
2021/03/19 11:52:20;;;;;;;5.25;4.75;;;;;;;22.38;42.77;101393.97;4988240;28;20030;-70
2021/03/19 11:54:46;;;;;;;4.32;4.03;;;;;;;22.37;42.79;101384.19;4986935;28;20041;-69
2021/03/19 11:57:12;;;;;;;5.35;4.85;;;;;;;22.38;42.76;101387.75;4985651;28;20026;-68